createdAt,value
2019-06-26T19:21:43.833Z,44.92
2019-06-26T19:24:47.711Z,45.81
2019-06-26T19:27:51.340Z,44.84
2019-06-26T19:30:55.079Z,44.54
2019-06-26T19:33:58.782Z,44.72
2019-06-26T19:37:02.479Z,45.88
2019-06-26T19:40:08.544Z,45.92
2019-06-26T19:43:13.302Z,46.11
2019-06-26T19:46:20.088Z,46.80
2019-06-26T19:49:23.734Z,46.84
2019-06-26T19:52:32.093Z,47.50
2019-06-26T19:55:35.909Z,47.23
2019-06-26T19:58:45.239Z,47.88
2019-06-26T20:01:54.688Z,48.28
2019-06-26T20:04:58.457Z,48.26
2019-06-26T20:08:02.149Z,48.28
2019-06-26T20:11:05.973Z,48.60
2019-06-26T20:14:09.660Z,48.30
2019-06-26T20:17:20.350Z,48.32
2019-06-26T20:20:24.042Z,48.10
2019-06-26T20:23:27.888Z,48.23
2019-06-26T20:26:31.639Z,48.34
2019-06-26T20:29:35.616Z,48.55
2019-06-26T20:32:39.344Z,48.72
2019-06-26T20:35:44.585Z,48.70
2019-06-26T20:38:48.277Z,48.81
2019-06-26T20:41:51.935Z,48.82
2019-06-26T20:44:55.607Z,49.04
2019-06-26T20:47:59.431Z,48.99
2019-06-26T20:51:55.678Z,49.08
2019-06-26T20:54:14.326Z,49.10
2019-06-26T20:57:19.616Z,49.28
2019-06-26T21:00:26.645Z,49.41
2019-06-26T21:03:30.311Z,49.42
2019-06-26T21:06:33.967Z,49.70
2019-06-26T21:09:37.631Z,49.58
2019-06-26T21:12:42.578Z,49.93
2019-06-26T21:15:53.184Z,49.98
2019-06-26T21:18:56.208Z,49.90
2019-06-26T21:22:03.075Z,49.52
2019-06-26T21:25:18.266Z,50.13
2019-06-26T21:28:13.372Z,50.34
2019-06-26T21:31:17.007Z,50.56
2019-06-26T21:34:25.218Z,50.58
2019-06-26T21:37:28.845Z,50.85
2019-06-26T21:40:32.688Z,51.25
2019-06-26T21:43:36.367Z,51.20
2019-06-26T21:46:40.037Z,51.33
2019-06-26T21:49:47.434Z,51.64
2019-06-26T21:52:54.911Z,52.05
2019-06-26T21:56:07.076Z,52.09
2019-06-26T21:59:11.092Z,52.41
2019-06-26T22:02:14.935Z,52.60
2019-06-26T22:05:20.220Z,53.61
2019-06-26T22:08:25.878Z,54.15
2019-06-26T22:11:32.925Z,53.86
2019-06-26T22:14:36.633Z,54.30
2019-06-26T22:17:40.260Z,54.43
2019-06-26T22:20:45.642Z,54.46
2019-06-26T22:23:49.401Z,54.55
2019-06-26T22:27:06.375Z,54.85
2019-06-26T22:30:08.120Z,55.02
2019-06-26T22:33:11.912Z,55.33
2019-06-26T22:36:16.751Z,55.57
2019-06-26T22:39:20.405Z,55.89
2019-06-26T22:42:24.106Z,55.82
2019-06-26T22:45:27.715Z,55.99
2019-06-26T22:48:31.560Z,55.85
2019-06-26T22:51:35.311Z,56.38
2019-06-26T22:54:39.045Z,56.44
2019-06-26T22:57:42.744Z,56.70
2019-06-26T23:00:47.867Z,56.76
2019-06-26T23:03:51.718Z,56.88
2019-06-26T23:06:55.351Z,57.39
2019-06-26T23:09:59.018Z,57.39
2019-06-26T23:13:02.845Z,57.64
2019-06-26T23:16:06.595Z,58.08
2019-06-26T23:19:10.235Z,58.64
2019-06-26T23:22:13.874Z,58.44
2019-06-26T23:25:17.538Z,58.37
2019-06-26T23:28:21.181Z,58.92
2019-06-26T23:31:28.100Z,59.56
2019-06-26T23:34:37.859Z,59.23
2019-06-26T23:37:41.523Z,59.14
2019-06-26T23:40:45.188Z,59.52
2019-06-26T23:43:48.914Z,59.29
2019-06-26T23:46:52.583Z,59.67
2019-06-26T23:49:56.307Z,59.04
2019-06-26T23:52:59.964Z,59.38
2019-06-26T23:56:03.606Z,59.01
2019-06-26T23:59:07.282Z,58.98
